sensor_id;sensor_type;location;lat;lon;timestamp;pressure;altitude;pressure_sealevel;temperature;humidity
31681;BME280;18281;51.364;9.566;2023-04-26T00:01:49;100109.06;;;1.87;98.54
31681;BME280;18281;51.364;9.566;2023-04-26T00:04:15;100114.28;;;1.85;98.09
31681;BME280;18281;51.364;9.566;2023-04-26T00:06:40;100107.41;;;1.83;97.46
31681;BME280;18281;51.364;9.566;2023-04-26T00:09:05;100111.81;;;1.79;98.30
31681;BME280;18281;51.364;9.566;2023-04-26T00:11:31;100116.19;;;1.76;98.37
31681;BME280;18281;51.364;9.566;2023-04-26T00:13:57;100118.03;;;1.69;98.67
31681;BME280;18281;51.364;9.566;2023-04-26T00:16:23;100111.06;;;1.73;98.25
31681;BME280;18281;51.364;9.566;2023-04-26T00:18:48;100116.31;;;1.68;98.87
31681;BME280;18281;51.364;9.566;2023-04-26T00:21:14;100118.16;;;1.61;99.24
31681;BME280;18281;51.364;9.566;2023-04-26T00:23:39;100114.81;;;1.54;99.01
31681;BME280;18281;51.364;9.566;2023-04-26T00:26:04;100113.94;;;1.56;99.07
31681;BME280;18281;51.364;9.566;2023-04-26T00:28:30;100109.66;;;1.53;98.86
31681;BME280;18281;51.364;9.566;2023-04-26T00:30:55;100115.69;;;1.53;99.20
31681;BME280;18281;51.364;9.566;2023-04-26T00:33:22;100111.59;;;1.42;100.00
31681;BME280;18281;51.364;9.566;2023-04-26T00:35:48;100107.13;;;1.50;99.61
31681;BME280;18281;51.364;9.566;2023-04-26T00:38:13;100108.94;;;1.45;99.15
31681;BME280;18281;51.364;9.566;2023-04-26T00:40:38;100098.72;;;1.37;99.82
31681;BME280;18281;51.364;9.566;2023-04-26T00:43:04;100110.81;;;1.36;99.80
31681;BME280;18281;51.364;9.566;2023-04-26T00:45:30;100107.31;;;1.39;99.25
31681;BME280;18281;51.364;9.566;2023-04-26T00:47:57;100111.66;;;1.35;100.00
31681;BME280;18281;51.364;9.566;2023-04-26T00:50:24;100114.38;;;1.28;100.00
31681;BME280;18281;51.364;9.566;2023-04-26T00:52:50;100118.69;;;1.27;100.00
31681;BME280;18281;51.364;9.566;2023-04-26T00:55:15;100121.34;;;1.23;100.00
31681;BME280;18281;51.364;9.566;2023-04-26T00:57:44;100122.25;;;1.22;100.00
31681;BME280;18281;51.364;9.566;2023-04-26T01:00:10;100127.41;;;1.22;99.96
31681;BME280;18281;51.364;9.566;2023-04-26T01:02:35;100121.41;;;1.19;100.00
31681;BME280;18281;51.364;9.566;2023-04-26T01:05:01;100124.84;;;1.18;99.59
31681;BME280;18281;51.364;9.566;2023-04-26T01:07:27;100120.66;;;1.11;100.00
31681;BME280;18281;51.364;9.566;2023-04-26T01:09:52;100132.72;;;1.12;100.00
31681;BME280;18281;51.364;9.566;2023-04-26T01:12:19;100135.38;;;1.06;100.00
31681;BME280;18281;51.364;9.566;2023-04-26T01:14:45;100136.25;;;1.05;100.00
31681;BME280;18281;51.364;9.566;2023-04-26T01:17:11;100133.72;;;1.02;100.00
31681;BME280;18281;51.364;9.566;2023-04-26T01:19:45;100133.78;;;0.99;99.94
31681;BME280;18281;51.364;9.566;2023-04-26T01:22:11;100127.75;;;0.95;100.00
31681;BME280;18281;51.364;9.566;2023-04-26T01:24:36;100144.09;;;0.96;100.00
31681;BME280;18281;51.364;9.566;2023-04-26T01:27:03;100135.53;;;0.91;100.00
31681;BME280;18281;51.364;9.566;2023-04-26T01:29:29;100138.19;;;0.87;100.00
31681;BME280;18281;51.364;9.566;2023-04-26T01:31:55;100128.75;;;0.83;100.00
31681;BME280;18281;51.364;9.566;2023-04-26T01:34:21;100130.44;;;0.87;100.00
31681;BME280;18281;51.364;9.566;2023-04-26T01:36:46;100130.41;;;0.89;100.00
31681;BME280;18281;51.364;9.566;2023-04-26T01:39:11;100125.34;;;0.81;100.00
31681;BME280;18281;51.364;9.566;2023-04-26T01:41:37;100125.34;;;0.80;100.00
31681;BME280;18281;51.364;9.566;2023-04-26T01:44:03;100132.22;;;0.82;100.00
31681;BME280;18281;51.364;9.566;2023-04-26T01:46:28;100135.75;;;0.75;100.00
31681;BME280;18281;51.364;9.566;2023-04-26T01:48:54;100134.03;;;0.76;100.00
31681;BME280;18281;51.364;9.566;2023-04-26T01:51:19;100136.69;;;0.71;100.00
31681;BME280;18281;51.364;9.566;2023-04-26T01:53:45;100128.09;;;0.67;100.00
31681;BME280;18281;51.364;9.566;2023-04-26T01:56:10;100131.56;;;0.66;100.00
31681;BME280;18281;51.364;9.566;2023-04-26T01:58:36;100133.34;;;0.63;100.00
31681;BME280;18281;51.364;9.566;2023-04-26T02:01:06;100127.31;;;0.62;100.00
31681;BME280;18281;51.364;9.566;2023-04-26T02:03:32;100130.78;;;0.60;100.00
31681;BME280;18281;51.364;9.566;2023-04-26T02:05:58;100135.16;;;0.56;100.00
31681;BME280;18281;51.364;9.566;2023-04-26T02:08:23;100131.75;;;0.51;100.00
31681;BME280;18281;51.364;9.566;2023-04-26T02:10:48;100134.38;;;0.49;100.00
31681;BME280;18281;51.364;9.566;2023-04-26T02:13:14;100124.03;;;0.49;100.00
31681;BME280;18281;51.364;9.566;2023-04-26T02:15:40;100127.53;;;0.42;100.00
31681;BME280;18281;51.364;9.566;2023-04-26T02:18:05;100125.84;;;0.41;100.00
31681;BME280;18281;51.364;9.566;2023-04-26T02:20:31;100124.16;;;0.37;100.00
31681;BME280;18281;51.364;9.566;2023-04-26T02:22:56;100123.34;;;0.35;100.00
31681;BME280;18281;51.364;9.566;2023-04-26T02:25:22;100122.50;;;0.34;100.00
31681;BME280;18281;51.364;9.566;2023-04-26T02:27:47;100126.81;;;0.31;100.00
31681;BME280;18281;51.364;9.566;2023-04-26T02:30:13;100129.41;;;0.31;100.00
31681;BME280;18281;51.364;9.566;2023-04-26T02:32:38;100119.13;;;0.28;100.00
31681;BME280;18281;51.364;9.566;2023-04-26T02:35:04;100120.78;;;0.32;100.00
31681;BME280;18281;51.364;9.566;2023-04-26T02:37:31;100127.75;;;0.24;100.00
31681;BME280;18281;51.364;9.566;2023-04-26T02:39:56;100132.94;;;0.22;100.00
31681;BME280;18281;51.364;9.566;2023-04-26T02:42:22;100125.22;;;0.19;100.00
31681;BME280;18281;51.364;9.566;2023-04-26T02:44:47;100125.25;;;0.14;100.00
31681;BME280;18281;51.364;9.566;2023-04-26T02:47:12;100126.97;;;0.15;100.00
31681;BME280;18281;51.364;9.566;2023-04-26T02:49:38;100127.06;;;0.08;100.00
31681;BME280;18281;51.364;9.566;2023-04-26T02:52:03;100128.78;;;0.09;100.00
31681;BME280;18281;51.364;9.566;2023-04-26T02:54:29;100129.66;;;0.09;100.00
31681;BME280;18281;51.364;9.566;2023-04-26T02:56:54;100140.03;;;0.03;100.00
31681;BME280;18281;51.364;9.566;2023-04-26T02:59:19;100135.75;;;0.00;100.00
31681;BME280;18281;51.364;9.566;2023-04-26T03:01:45;100133.22;;;-0.04;100.00
31681;BME280;18281;51.364;9.566;2023-04-26T03:04:11;100139.19;;;-0.01;100.00
31681;BME280;18281;51.364;9.566;2023-04-26T03:06:36;100135.81;;;-0.07;100.00
31681;BME280;18281;51.364;9.566;2023-04-26T03:09:02;100135.84;;;-0.10;100.00
31681;BME280;18281;51.364;9.566;2023-04-26T03:11:28;100137.59;;;-0.11;100.00
31681;BME280;18281;51.364;9.566;2023-04-26T03:13:53;100133.38;;;-0.21;100.00
31681;BME280;18281;51.364;9.566;2023-04-26T03:16:19;100133.31;;;-0.18;100.00
31681;BME280;18281;51.364;9.566;2023-04-26T03:18:47;100126.44;;;-0.15;100.00
31681;BME280;18281;51.364;9.566;2023-04-26T03:21:12;100133.31;;;-0.17;100.00
31681;BME280;18281;51.364;9.566;2023-04-26T03:23:38;100126.47;;;-0.21;100.00
31681;BME280;18281;51.364;9.566;2023-04-26T03:26:03;100134.22;;;-0.22;100.00
31681;BME280;18281;51.364;9.566;2023-04-26T03:28:28;100128.22;;;-0.26;100.00
31681;BME280;18281;51.364;9.566;2023-04-26T03:30:54;100129.16;;;-0.33;100.00
31681;BME280;18281;51.364;9.566;2023-04-26T03:33:19;100121.41;;;-0.30;100.00
31681;BME280;18281;51.364;9.566;2023-04-26T03:35:45;100128.31;;;-0.32;100.00
31681;BME280;18281;51.364;9.566;2023-04-26T03:38:10;100138.66;;;-0.35;100.00
31681;BME280;18281;51.364;9.566;2023-04-26T03:40:36;100134.38;;;-0.38;100.00
31681;BME280;18281;51.364;9.566;2023-04-26T03:43:01;100132.66;;;-0.39;100.00
31681;BME280;18281;51.364;9.566;2023-04-26T03:45:27;100130.09;;;-0.40;100.00
31681;BME280;18281;51.364;9.566;2023-04-26T03:47:52;100138.69;;;-0.41;100.00
31681;BME280;18281;51.364;9.566;2023-04-26T03:50:18;100136.13;;;-0.46;100.00
31681;BME280;18281;51.364;9.566;2023-04-26T03:52:43;100129.31;;;-0.49;100.00
31681;BME280;18281;51.364;9.566;2023-04-26T03:55:09;100137.06;;;-0.52;100.00
31681;BME280;18281;51.364;9.566;2023-04-26T03:57:36;100138.78;;;-0.51;100.00
31681;BME280;18281;51.364;9.566;2023-04-26T04:00:01;100136.25;;;-0.58;100.00
31681;BME280;18281;51.364;9.566;2023-04-26T04:02:30;100138.00;;;-0.62;100.00
31681;BME280;18281;51.364;9.566;2023-04-26T04:04:57;100136.28;;;-0.61;100.00
31681;BME280;18281;51.364;9.566;2023-04-26T04:07:22;100129.41;;;-0.64;100.00
31681;BME280;18281;51.364;9.566;2023-04-26T04:09:48;100132.84;;;-0.60;100.00
31681;BME280;18281;51.364;9.566;2023-04-26T04:12:13;100132.84;;;-0.60;100.00
31681;BME280;18281;51.364;9.566;2023-04-26T04:14:38;100128.56;;;-0.63;100.00
31681;BME280;18281;51.364;9.566;2023-04-26T04:17:04;100128.56;;;-0.66;100.00
31681;BME280;18281;51.364;9.566;2023-04-26T04:19:29;100125.16;;;-0.70;100.00
31681;BME280;18281;51.364;9.566;2023-04-26T04:21:54;100121.72;;;-0.69;100.00
31681;BME280;18281;51.364;9.566;2023-04-26T04:24:20;100133.78;;;-0.72;100.00
31681;BME280;18281;51.364;9.566;2023-04-26T04:26:45;100133.78;;;-0.74;100.00
31681;BME280;18281;51.364;9.566;2023-04-26T04:29:11;100130.34;;;-0.74;100.00
31681;BME280;18281;51.364;9.566;2023-04-26T04:31:36;100127.81;;;-0.81;100.00
31681;BME280;18281;51.364;9.566;2023-04-26T04:34:02;100130.34;;;-0.74;100.00
31681;BME280;18281;51.364;9.566;2023-04-26T04:36:27;100132.94;;;-0.77;100.00
31681;BME280;18281;51.364;9.566;2023-04-26T04:38:53;100142.38;;;-0.75;100.00
31681;BME280;18281;51.364;9.566;2023-04-26T04:41:18;100142.41;;;-0.76;100.00
31681;BME280;18281;51.364;9.566;2023-04-26T04:43:46;100141.53;;;-0.78;100.00
31681;BME280;18281;51.364;9.566;2023-04-26T04:46:11;100146.75;;;-0.83;100.00
31681;BME280;18281;51.364;9.566;2023-04-26T04:48:37;100149.31;;;-0.83;100.00
31681;BME280;18281;51.364;9.566;2023-04-26T04:51:03;100145.88;;;-0.87;100.00
31681;BME280;18281;51.364;9.566;2023-04-26T04:53:28;100155.34;;;-0.86;100.00
31681;BME280;18281;51.364;9.566;2023-04-26T04:55:54;100162.19;;;-0.86;100.00
31681;BME280;18281;51.364;9.566;2023-04-26T04:58:19;100164.78;;;-0.86;100.00
31681;BME280;18281;51.364;9.566;2023-04-26T05:00:46;100160.53;;;-0.89;100.00
31681;BME280;18281;51.364;9.566;2023-04-26T05:03:13;100170.81;;;-0.86;100.00
31681;BME280;18281;51.364;9.566;2023-04-26T05:05:39;100173.38;;;-0.83;100.00
31681;BME280;18281;51.364;9.566;2023-04-26T05:08:04;100175.91;;;-0.80;100.00
31681;BME280;18281;51.364;9.566;2023-04-26T05:10:33;100169.91;;;-0.82;100.00
31681;BME280;18281;51.364;9.566;2023-04-26T05:12:58;100170.78;;;-0.81;100.00
31681;BME280;18281;51.364;9.566;2023-04-26T05:15:23;100175.06;;;-0.80;100.00
31681;BME280;18281;51.364;9.566;2023-04-26T05:17:49;100168.25;;;-0.89;100.00
31681;BME280;18281;51.364;9.566;2023-04-26T05:20:15;100175.94;;;-0.81;100.00
31681;BME280;18281;51.364;9.566;2023-04-26T05:22:40;100169.06;;;-0.81;100.00
31681;BME280;18281;51.364;9.566;2023-04-26T05:25:06;100173.34;;;-0.80;100.00
31681;BME280;18281;51.364;9.566;2023-04-26T05:27:32;100175.88;;;-0.72;100.00
31681;BME280;18281;51.364;9.566;2023-04-26T05:29:59;100173.34;;;-0.80;100.00
31681;BME280;18281;51.364;9.566;2023-04-26T05:32:25;100178.44;;;-0.70;100.00
31681;BME280;18281;51.364;9.566;2023-04-26T05:34:50;100178.41;;;-0.66;100.00
31681;BME280;18281;51.364;9.566;2023-04-26T05:37:16;100185.25;;;-0.60;100.00
31681;BME280;18281;51.364;9.566;2023-04-26T05:39:41;100181.81;;;-0.57;100.00
31681;BME280;18281;51.364;9.566;2023-04-26T05:42:06;100186.97;;;-0.57;100.00
31681;BME280;18281;51.364;9.566;2023-04-26T05:44:32;100193.84;;;-0.58;100.00
31681;BME280;18281;51.364;9.566;2023-04-26T05:46:57;100196.38;;;-0.52;100.00
31681;BME280;18281;51.364;9.566;2023-04-26T05:49:22;100204.09;;;-0.52;100.00
31681;BME280;18281;51.364;9.566;2023-04-26T05:51:48;100198.03;;;-0.46;100.00
31681;BME280;18281;51.364;9.566;2023-04-26T05:54:13;100204.88;;;-0.37;100.00
31681;BME280;18281;51.364;9.566;2023-04-26T05:56:39;100200.50;;;-0.29;100.00
31681;BME280;18281;51.364;9.566;2023-04-26T05:59:04;100207.31;;;-0.19;100.00
31681;BME280;18281;51.364;9.566;2023-04-26T06:01:29;100203.88;;;-0.21;100.00
31681;BME280;18281;51.364;9.566;2023-04-26T06:03:55;100209.00;;;-0.15;100.00
31681;BME280;18281;51.364;9.566;2023-04-26T06:06:20;100204.66;;;-0.09;100.00
31681;BME280;18281;51.364;9.566;2023-04-26T06:08:45;100202.88;;;-0.03;100.00
31681;BME280;18281;51.364;9.566;2023-04-26T06:11:11;100207.09;;;0.08;100.00
31681;BME280;18281;51.364;9.566;2023-04-26T06:13:36;100214.91;;;0.01;100.00
31681;BME280;18281;51.364;9.566;2023-04-26T06:16:01;100203.44;;;0.32;100.00
31681;BME280;18281;51.364;9.566;2023-04-26T06:18:27;100213.53;;;0.55;100.00
31681;BME280;18281;51.364;9.566;2023-04-26T06:20:52;100208.22;;;0.67;100.00
31681;BME280;18281;51.364;9.566;2023-04-26T06:23:17;100213.56;;;0.50;100.00
31681;BME280;18281;51.364;9.566;2023-04-26T06:25:43;100208.94;;;0.77;100.00
31681;BME280;18281;51.364;9.566;2023-04-26T06:28:11;100214.56;;;1.76;100.00
31681;BME280;18281;51.364;9.566;2023-04-26T06:30:36;100207.72;;;2.68;100.00
31681;BME280;18281;51.364;9.566;2023-04-26T06:33:01;100207.59;;;3.18;100.00
31681;BME280;18281;51.364;9.566;2023-04-26T06:35:27;100204.53;;;3.78;100.00
31681;BME280;18281;51.364;9.566;2023-04-26T06:37:52;100205.31;;;4.16;100.00
31681;BME280;18281;51.364;9.566;2023-04-26T06:40:17;100211.16;;;4.26;100.00
31681;BME280;18281;51.364;9.566;2023-04-26T06:42:43;100209.94;;;4.70;100.00
31681;BME280;18281;51.364;9.566;2023-04-26T06:45:09;100202.91;;;5.04;100.00
31681;BME280;18281;51.364;9.566;2023-04-26T06:47:35;100201.19;;;5.33;100.00
31681;BME280;18281;51.364;9.566;2023-04-26T06:50:02;100204.47;;;5.68;99.33
31681;BME280;18281;51.364;9.566;2023-04-26T06:52:28;100215.25;;;5.84;96.49
31681;BME280;18281;51.364;9.566;2023-04-26T06:54:54;100205.41;;;5.92;94.39
31681;BME280;18281;51.364;9.566;2023-04-26T06:57:19;100209.03;;;5.88;93.30
31681;BME280;18281;51.364;9.566;2023-04-26T06:59:45;100214.19;;;5.89;92.42
31681;BME280;18281;51.364;9.566;2023-04-26T07:02:10;100212.06;;;5.74;93.55
31681;BME280;18281;51.364;9.566;2023-04-26T07:04:36;100212.03;;;5.47;94.10
31681;BME280;18281;51.364;9.566;2023-04-26T07:07:01;100217.47;;;5.10;91.16
31681;BME280;18281;51.364;9.566;2023-04-26T07:09:27;100208.88;;;5.07;92.50
31681;BME280;18281;51.364;9.566;2023-04-26T07:11:52;100204.50;;;4.78;88.38
31681;BME280;18281;51.364;9.566;2023-04-26T07:14:17;100221.00;;;4.77;90.00
31681;BME280;18281;51.364;9.566;2023-04-26T07:16:43;100219.78;;;4.59;90.94
31681;BME280;18281;51.364;9.566;2023-04-26T07:19:08;100226.91;;;4.52;91.83
31681;BME280;18281;51.364;9.566;2023-04-26T07:21:35;100234.84;;;4.46;92.18
31681;BME280;18281;51.364;9.566;2023-04-26T07:24:01;100230.75;;;4.37;91.81
31681;BME280;18281;51.364;9.566;2023-04-26T07:26:26;100226.56;;;4.32;92.24
31681;BME280;18281;51.364;9.566;2023-04-26T07:28:52;100226.69;;;4.27;92.12
31681;BME280;18281;51.364;9.566;2023-04-26T07:31:18;100225.06;;;4.23;91.77
31681;BME280;18281;51.364;9.566;2023-04-26T07:33:44;100234.44;;;4.29;92.70
31681;BME280;18281;51.364;9.566;2023-04-26T07:36:10;100237.78;;;4.34;92.14
31681;BME280;18281;51.364;9.566;2023-04-26T07:38:36;100237.22;;;4.21;91.66
31681;BME280;18281;51.364;9.566;2023-04-26T07:41:01;100232.88;;;4.21;91.39
31681;BME280;18281;51.364;9.566;2023-04-26T07:43:26;100234.16;;;4.39;91.21
31681;BME280;18281;51.364;9.566;2023-04-26T07:45:52;100237.84;;;4.31;89.80
31681;BME280;18281;51.364;9.566;2023-04-26T07:48:18;100239.47;;;4.35;89.72
31681;BME280;18281;51.364;9.566;2023-04-26T07:50:43;100228.13;;;4.39;90.26
31681;BME280;18281;51.364;9.566;2023-04-26T07:53:08;100233.97;;;4.47;88.76
31681;BME280;18281;51.364;9.566;2023-04-26T07:55:34;100233.22;;;4.42;88.32
31681;BME280;18281;51.364;9.566;2023-04-26T07:58:00;100229.41;;;4.22;88.14
31681;BME280;18281;51.364;9.566;2023-04-26T08:00:25;100228.97;;;4.39;89.55
31681;BME280;18281;51.364;9.566;2023-04-26T08:02:51;100226.72;;;4.59;89.26
31681;BME280;18281;51.364;9.566;2023-04-26T08:05:16;100234.47;;;4.60;87.56
31681;BME280;18281;51.364;9.566;2023-04-26T08:07:42;100228.44;;;4.60;87.05
31681;BME280;18281;51.364;9.566;2023-04-26T08:10:08;100218.81;;;4.62;87.08
31681;BME280;18281;51.364;9.566;2023-04-26T08:12:35;100218.81;;;4.62;87.01
31681;BME280;18281;51.364;9.566;2023-04-26T08:15:01;100222.69;;;4.47;85.55
31681;BME280;18281;51.364;9.566;2023-04-26T08:17:28;100227.91;;;4.47;84.11
31681;BME280;18281;51.364;9.566;2023-04-26T08:19:54;100229.56;;;4.49;83.85
31681;BME280;18281;51.364;9.566;2023-04-26T08:22:19;100227.16;;;4.43;81.49
31681;BME280;18281;51.364;9.566;2023-04-26T08:24:49;100226.06;;;4.50;83.05
31681;BME280;18281;51.364;9.566;2023-04-26T08:27:15;100218.81;;;4.63;83.77
31681;BME280;18281;51.364;9.566;2023-04-26T08:29:41;100217.69;;;4.72;83.48
31681;BME280;18281;51.364;9.566;2023-04-26T08:32:07;100221.00;;;4.77;82.17
31681;BME280;18281;51.364;9.566;2023-04-26T08:34:32;100224.34;;;4.82;82.71
31681;BME280;18281;51.364;9.566;2023-04-26T08:36:57;100226.16;;;4.79;81.49
31681;BME280;18281;51.364;9.566;2023-04-26T08:39:23;100224.44;;;4.79;82.64
31681;BME280;18281;51.364;9.566;2023-04-26T08:41:52;100229.50;;;4.84;82.82
31681;BME280;18281;51.364;9.566;2023-04-26T08:44:21;100230.44;;;4.81;83.68
31681;BME280;18281;51.364;9.566;2023-04-26T08:47:04;100225.19;;;4.83;84.17
31681;BME280;18281;51.364;9.566;2023-04-26T08:52:03;100233.72;;;4.88;83.18
31681;BME280;18281;51.364;9.566;2023-04-26T08:54:29;100231.00;;;4.91;83.33
31681;BME280;18281;51.364;9.566;2023-04-26T08:56:57;100224.28;;;4.84;82.19
31681;BME280;18281;51.364;9.566;2023-04-26T08:59:23;100231.00;;;4.91;83.57
31681;BME280;18281;51.364;9.566;2023-04-26T09:01:49;100230.09;;;4.94;83.05
31681;BME280;18281;51.364;9.566;2023-04-26T09:04:14;100223.06;;;4.97;83.27
31681;BME280;18281;51.364;9.566;2023-04-26T09:06:41;100231.00;;;4.91;81.74
31681;BME280;18281;51.364;9.566;2023-04-26T09:09:08;100227.41;;;4.97;83.13
31681;BME280;18281;51.364;9.566;2023-04-26T09:11:53;100227.03;;;5.09;81.82
31681;BME280;18281;51.364;9.566;2023-04-26T09:14:19;100228.81;;;5.07;81.74
31681;BME280;18281;51.364;9.566;2023-04-26T09:16:44;100225.22;;;5.11;81.13
31681;BME280;18281;51.364;9.566;2023-04-26T09:19:10;100229.50;;;5.14;81.23
31681;BME280;18281;51.364;9.566;2023-04-26T09:21:42;100228.50;;;5.18;80.12
31681;BME280;18281;51.364;9.566;2023-04-26T09:24:08;100214.66;;;5.17;79.19
31681;BME280;18281;51.364;9.566;2023-04-26T09:26:34;100216.44;;;5.15;78.80
31681;BME280;18281;51.364;9.566;2023-04-26T09:29:17;100222.63;;;5.11;75.53
31681;BME280;18281;51.364;9.566;2023-04-26T09:31:45;100223.34;;;5.16;77.44
31681;BME280;18281;51.364;9.566;2023-04-26T09:34:11;100218.88;;;5.21;80.56
31681;BME280;18281;51.364;9.566;2023-04-26T09:36:54;100222.28;;;5.23;79.00
31681;BME280;18281;51.364;9.566;2023-04-26T09:39:35;100218.66;;;5.29;80.53
31681;BME280;18281;51.364;9.566;2023-04-26T09:42:02;100220.38;;;5.29;80.87
31681;BME280;18281;51.364;9.566;2023-04-26T09:44:28;100218.88;;;5.21;77.04
31681;BME280;18281;51.364;9.566;2023-04-26T09:47:01;100217.78;;;5.29;79.34
31681;BME280;18281;51.364;9.566;2023-04-26T09:49:30;100212.50;;;5.32;77.41
31681;BME280;18281;51.364;9.566;2023-04-26T09:52:03;100216.00;;;5.31;77.70
31681;BME280;18281;51.364;9.566;2023-04-26T09:54:45;100215.03;;;5.35;77.07
31681;BME280;18281;51.364;9.566;2023-04-26T09:57:13;100216.00;;;5.31;75.77
31681;BME280;18281;51.364;9.566;2023-04-26T09:59:49;100215.84;;;5.37;77.60
31681;BME280;18281;51.364;9.566;2023-04-26T10:02:22;100223.97;;;5.26;76.79
31681;BME280;18281;51.364;9.566;2023-04-26T10:04:51;100216.63;;;5.39;78.09
31681;BME280;18281;51.364;9.566;2023-04-26T10:07:19;100209.59;;;5.43;78.20
31681;BME280;18281;51.364;9.566;2023-04-26T10:09:45;100225.13;;;5.46;77.73
31681;BME280;18281;51.364;9.566;2023-04-26T10:12:12;100213.84;;;5.45;78.77
31681;BME280;18281;51.364;9.566;2023-04-26T10:14:38;100212.00;;;5.49;77.27
31681;BME280;18281;51.364;9.566;2023-04-26T10:17:05;100221.66;;;5.45;76.10
31681;BME280;18281;51.364;9.566;2023-04-26T10:19:33;100230.31;;;5.46;75.56
31681;BME280;18281;51.364;9.566;2023-04-26T10:22:04;100226.66;;;5.51;76.62
31681;BME280;18281;51.364;9.566;2023-04-26T10:24:31;100211.97;;;5.50;77.71
31681;BME280;18281;51.364;9.566;2023-04-26T10:26:58;100216.19;;;5.54;77.14
31681;BME280;18281;51.364;9.566;2023-04-26T10:29:24;100221.44;;;5.53;76.00
31681;BME280;18281;51.364;9.566;2023-04-26T10:34:34;100212.09;;;5.46;72.87
31681;BME280;18281;51.364;9.566;2023-04-26T10:37:12;100209.38;;;5.50;74.22
31681;BME280;18281;51.364;9.566;2023-04-26T10:39:39;100200.69;;;5.50;75.77
31681;BME280;18281;51.364;9.566;2023-04-26T10:42:27;100203.22;;;5.51;72.28
31681;BME280;18281;51.364;9.566;2023-04-26T10:45:26;100199.34;;;5.92;80.52
31681;BME280;18281;51.364;9.566;2023-04-26T10:48:16;100202.09;;;6.14;84.79
31681;BME280;18281;51.364;9.566;2023-04-26T10:55:52;100197.19;;;6.30;82.35
31681;BME280;18281;51.364;9.566;2023-04-26T10:58:28;100200.88;;;6.24;81.50
31681;BME280;18281;51.364;9.566;2023-04-26T11:01:04;100199.22;;;6.21;79.97
31681;BME280;18281;51.364;9.566;2023-04-26T11:03:30;100193.16;;;6.21;80.50
31681;BME280;18281;51.364;9.566;2023-04-26T11:05:56;100195.16;;;6.13;74.61
31681;BME280;18281;51.364;9.566;2023-04-26T11:08:26;100188.16;;;6.15;77.44
31681;BME280;18281;51.364;9.566;2023-04-26T11:11:05;100183.78;;;6.15;78.79
31681;BME280;18281;51.364;9.566;2023-04-26T11:13:35;100183.91;;;6.12;76.04
31681;BME280;18281;51.364;9.566;2023-04-26T11:16:03;100185.50;;;6.16;75.91
31681;BME280;18281;51.364;9.566;2023-04-26T11:18:33;100191.59;;;6.15;74.64
31681;BME280;18281;51.364;9.566;2023-04-26T11:20:59;100194.84;;;6.22;76.41
31681;BME280;18281;51.364;9.566;2023-04-26T11:23:26;100189.59;;;6.23;75.94
31681;BME280;18281;51.364;9.566;2023-04-26T11:25:52;100190.44;;;6.24;76.02
31681;BME280;18281;51.364;9.566;2023-04-26T11:28:19;100196.44;;;6.26;77.41
31681;BME280;18281;51.364;9.566;2023-04-26T11:30:48;100196.38;;;6.29;75.23
31681;BME280;18281;51.364;9.566;2023-04-26T11:33:18;100201.72;;;6.24;72.67
31681;BME280;18281;51.364;9.566;2023-04-26T11:35:45;100200.66;;;6.30;72.91
31681;BME280;18281;51.364;9.566;2023-04-26T11:38:12;100196.13;;;6.35;75.06
31681;BME280;18281;51.364;9.566;2023-04-26T11:40:38;100197.84;;;6.36;75.62
31681;BME280;18281;51.364;9.566;2023-04-26T11:43:04;100200.50;;;6.35;74.56
31681;BME280;18281;51.364;9.566;2023-04-26T11:45:34;100197.16;;;6.31;70.77
31681;BME280;18281;51.364;9.566;2023-04-26T11:48:08;100196.88;;;6.39;70.53
31681;BME280;18281;51.364;9.566;2023-04-26T11:50:36;100190.47;;;6.48;74.09
31681;BME280;18281;51.364;9.566;2023-04-26T11:53:03;100194.72;;;6.50;74.19
31681;BME280;18281;51.364;9.566;2023-04-26T11:55:30;100193.69;;;6.56;74.91
31681;BME280;18281;51.364;9.566;2023-04-26T11:58:00;100183.06;;;6.61;74.69
31681;BME280;18281;51.364;9.566;2023-04-26T12:00:26;100191.72;;;6.61;73.35
31681;BME280;18281;51.364;9.566;2023-04-26T12:02:52;100190.69;;;6.67;74.33
31681;BME280;18281;51.364;9.566;2023-04-26T12:05:28;100190.56;;;6.70;74.14
31681;BME280;18281;51.364;9.566;2023-04-26T12:08:05;100184.06;;;6.82;73.03
31681;BME280;18281;51.364;9.566;2023-04-26T12:10:32;100189.88;;;6.88;73.88
31681;BME280;18281;51.364;9.566;2023-04-26T12:12:58;100195.09;;;6.88;72.85
31681;BME280;18281;51.364;9.566;2023-04-26T12:15:27;100187.09;;;6.93;71.16
31681;BME280;18281;51.364;9.566;2023-04-26T12:18:13;100181.50;;;7.04;73.87
31681;BME280;18281;51.364;9.566;2023-04-26T12:20:40;100176.00;;;7.12;75.24
31681;BME280;18281;51.364;9.566;2023-04-26T12:23:08;100173.78;;;7.01;71.99
31681;BME280;18281;51.364;9.566;2023-04-26T12:25:35;100181.34;;;7.09;71.35
31681;BME280;18281;51.364;9.566;2023-04-26T12:28:03;100187.19;;;7.15;72.55
31681;BME280;18281;51.364;9.566;2023-04-26T12:30:29;100182.72;;;7.17;72.16
31681;BME280;18281;51.364;9.566;2023-04-26T12:32:55;100182.66;;;7.19;73.51
31681;BME280;18281;51.364;9.566;2023-04-26T12:35:22;100179.56;;;7.09;68.50
31681;BME280;18281;51.364;9.566;2023-04-26T12:37:48;100183.03;;;7.10;67.31
31681;BME280;18281;51.364;9.566;2023-04-26T12:40:15;100182.78;;;7.16;66.95
31681;BME280;18281;51.364;9.566;2023-04-26T12:42:40;100182.09;;;7.11;66.70
31681;BME280;18281;51.364;9.566;2023-04-26T12:45:06;100173.94;;;7.20;69.54
31681;BME280;18281;51.364;9.566;2023-04-26T12:47:32;100183.34;;;7.24;67.97
31681;BME280;18281;51.364;9.566;2023-04-26T12:49:58;100183.41;;;7.22;66.45
31681;BME280;18281;51.364;9.566;2023-04-26T12:52:25;100181.53;;;7.26;70.07
31681;BME280;18281;51.364;9.566;2023-04-26T12:54:51;100178.50;;;7.37;71.97
31681;BME280;18281;51.364;9.566;2023-04-26T12:57:17;100184.47;;;7.40;73.09
31681;BME280;18281;51.364;9.566;2023-04-26T12:59:43;100185.22;;;7.43;73.03
31681;BME280;18281;51.364;9.566;2023-04-26T13:02:08;100180.81;;;7.45;71.53